Time;durP1;ratioP1;P1;durP2;ratioP2;P2;SDS_P1;SDS_P2;PMS_P1;PMS_P2;Temp;Humidity;BMP_temperature;BMP_pressure;BME280_temperature;BME280_humidity;BME280_pressure;Samples;Min_cycle;Max_cycle;Signal;HPM_P1;HPM_P2
2021/03/11 00:00:36;;;;;;;15.70;10.30;;;8.50;76.70;;;;;;5027281;28;20846;-40
2021/03/11 00:03:06;;;;;;;15.43;9.80;;;8.50;76.50;;;;;;5027149;28;20660;-40
2021/03/11 00:05:34;;;;;;;17.10;10.67;;;8.50;75.30;;;;;;5026245;28;20546;-40
2021/03/11 00:08:00;;;;;;;16.70;10.07;;;8.40;75.20;;;;;;4992767;28;20486;-40
2021/03/11 00:10:27;;;;;;;15.77;10.70;;;8.40;75.80;;;;;;5007476;28;20615;-40
2021/03/11 00:12:53;;;;;;;14.37;9.60;;;8.40;76.30;;;;;;5024430;28;20514;-40
2021/03/11 00:15:23;;;;;;;18.73;10.73;;;8.40;76.00;;;;;;5042073;28;20454;-40
2021/03/11 00:17:50;;;;;;;16.93;11.73;;;8.40;75.90;;;;;;5025234;28;20550;-40
2021/03/11 00:20:22;;;;;;;15.20;10.70;;;8.50;75.80;;;;;;5024172;28;20464;-40
2021/03/11 00:22:49;;;;;;;12.37;10.03;;;8.50;75.30;;;;;;5026305;28;20513;-40
2021/03/11 00:25:17;;;;;;;17.67;9.83;;;8.50;75.40;;;;;;5027847;28;20539;-40
2021/03/11 00:27:44;;;;;;;16.53;10.87;;;8.50;75.60;;;;;;5019562;28;20514;-40
2021/03/11 00:30:11;;;;;;;17.80;11.40;;;8.50;76.00;;;;;;5023223;28;20538;-40
2021/03/11 00:32:41;;;;;;;16.30;10.90;;;8.50;75.60;;;;;;5026322;28;20459;-40
2021/03/11 00:35:10;;;;;;;17.07;11.13;;;8.50;75.60;;;;;;5027006;28;20450;-40
2021/03/11 00:37:41;;;;;;;19.40;11.20;;;8.60;75.60;;;;;;5024763;28;20554;-40
2021/03/11 00:40:10;;;;;;;16.13;10.80;;;8.50;75.70;;;;;;5024217;28;20486;-40
2021/03/11 00:42:36;;;;;;;16.80;10.40;;;8.50;76.10;;;;;;5023257;28;20541;-40
2021/03/11 00:45:08;;;;;;;15.80;10.30;;;8.50;76.70;;;;;;5026252;28;20514;-40
2021/03/11 00:47:35;;;;;;;19.27;10.50;;;8.50;77.10;;;;;;5009141;28;20498;-40
2021/03/11 00:50:03;;;;;;;18.40;11.10;;;8.60;77.40;;;;;;5008478;28;20486;-40
2021/03/11 00:52:29;;;;;;;17.43;10.90;;;8.50;77.40;;;;;;5025245;28;21131;-40
2021/03/11 00:54:55;;;;;;;16.37;12.07;;;8.50;77.70;;;;;;5030219;28;20483;-40
2021/03/11 00:57:21;;;;;;;16.73;10.27;;;8.50;77.40;;;;;;5024926;28;20952;-40
2021/03/11 00:59:48;;;;;;;16.73;10.10;;;8.60;76.80;;;;;;5006796;28;20468;-40
2021/03/11 01:02:15;;;;;;;18.20;11.97;;;8.50;76.60;;;;;;5024523;28;20462;-40
2021/03/11 01:04:41;;;;;;;17.00;12.03;;;8.50;76.80;;;;;;5030782;28;20456;-40
2021/03/11 01:07:08;;;;;;;15.97;10.67;;;8.50;76.60;;;;;;5025690;28;20953;-40
2021/03/11 01:09:38;;;;;;;17.60;10.43;;;8.50;76.50;;;;;;5024646;28;20566;-40
2021/03/11 01:12:05;;;;;;;18.40;10.17;;;8.50;76.00;;;;;;4991678;28;20495;-40
2021/03/11 01:14:34;;;;;;;22.07;11.00;;;8.50;75.70;;;;;;5005862;28;20470;-40
2021/03/11 01:17:00;;;;;;;13.87;9.07;;;8.50;75.80;;;;;;5023129;28;20517;-40
2021/03/11 01:19:30;;;;;;;14.53;9.33;;;8.50;75.80;;;;;;5025548;28;20456;-40
2021/03/11 01:21:57;;;;;;;14.30;9.87;;;8.50;75.60;;;;;;5008636;28;20499;-40
2021/03/11 01:24:25;;;;;;;19.40;9.77;;;8.50;75.50;;;;;;5008638;28;20543;-40
2021/03/11 01:26:52;;;;;;;17.07;9.23;;;8.50;75.40;;;;;;5028940;28;20560;-40
2021/03/11 01:29:19;;;;;;;13.40;9.30;;;8.50;75.30;;;;;;5029182;28;20489;-40
2021/03/11 01:31:46;;;;;;;17.53;9.87;;;8.50;75.60;;;;;;5013293;28;20979;-40
2021/03/11 01:34:13;;;;;;;16.03;10.20;;;8.50;75.20;;;;;;5008812;28;21023;-40
2021/03/11 01:36:39;;;;;;;15.80;8.73;;;8.50;75.30;;;;;;5030913;28;20461;-41
2021/03/11 01:39:06;;;;;;;18.10;9.73;;;8.60;75.20;;;;;;5028618;28;20542;-40
2021/03/11 01:41:32;;;;;;;14.60;9.80;;;8.50;74.80;;;;;;5025112;28;20901;-40
2021/03/11 01:43:59;;;;;;;19.97;10.53;;;8.60;74.80;;;;;;5026094;28;20524;-40
2021/03/11 01:46:28;;;;;;;16.27;10.40;;;8.60;75.00;;;;;;5011198;28;20686;-40
2021/03/11 01:48:55;;;;;;;14.63;9.60;;;8.60;75.00;;;;;;5034795;28;20479;-40
2021/03/11 01:51:29;;;;;;;16.07;9.17;;;8.60;75.00;;;;;;5031925;28;20440;-40
2021/03/11 01:53:56;;;;;;;14.63;9.67;;;8.60;74.70;;;;;;5027983;28;20475;-40
2021/03/11 01:56:23;;;;;;;15.50;9.50;;;8.60;74.50;;;;;;5011642;28;20432;-40
2021/03/11 01:58:53;;;;;;;15.00;9.37;;;8.60;73.90;;;;;;5006939;28;20510;-40
2021/03/11 02:01:19;;;;;;;18.53;9.70;;;8.70;74.20;;;;;;5010071;28;20467;-40
2021/03/11 02:03:46;;;;;;;12.87;8.23;;;8.70;73.50;;;;;;5028700;28;20504;-41
2021/03/11 02:06:12;;;;;;;14.10;8.63;;;8.70;73.60;;;;;;4992309;28;20571;-40
2021/03/11 02:08:39;;;;;;;13.30;8.80;;;8.70;73.30;;;;;;5028269;28;21162;-40
2021/03/11 02:11:09;;;;;;;14.47;9.40;;;8.70;73.10;;;;;;5024448;28;20458;-40
2021/03/11 02:13:51;;;;;;;16.93;9.93;;;8.70;73.10;;;;;;5022947;28;20471;-40
2021/03/11 02:16:30;;;;;;;13.43;9.00;;;8.70;72.50;;;;;;5023819;28;20473;-40
2021/03/11 02:19:26;;;;;;;12.43;8.73;;;8.70;72.90;;;;;;5021611;28;20493;-41
2021/03/11 02:22:12;;;;;;;12.90;8.70;;;8.80;72.40;;;;;;5003974;28;20495;-40
2021/03/11 02:25:35;;;;;;;16.83;8.20;;;8.80;72.20;;;;;;5028192;28;20517;-40
2021/03/11 02:28:12;;;;;;;14.37;8.77;;;8.80;70.70;;;;;;5017619;28;20571;-40
2021/03/11 02:30:40;;;;;;;14.03;9.00;;;8.90;71.10;;;;;;5023507;28;20463;-41
2021/03/11 02:33:08;;;;;;;13.67;9.40;;;8.90;70.80;;;;;;5010386;28;20470;-40
2021/03/11 02:35:43;;;;;;;15.37;8.87;;;8.90;70.30;;;;;;5026274;28;20461;-41
2021/03/11 02:38:13;;;;;;;15.43;10.03;;;8.90;70.90;;;;;;5041403;28;20460;-41
2021/03/11 02:40:43;;;;;;;12.50;9.00;;;8.90;70.90;;;;;;5025893;28;20472;-41
2021/03/11 02:43:12;;;;;;;19.10;10.50;;;9.00;70.50;;;;;;5023613;28;20547;-41
2021/03/11 02:45:40;;;;;;;16.90;10.07;;;9.00;70.30;;;;;;5041692;28;20910;-41
2021/03/11 02:48:08;;;;;;;13.13;9.30;;;9.00;70.10;;;;;;5024582;28;20494;-41
2021/03/11 02:50:39;;;;;;;13.50;8.87;;;9.00;70.00;;;;;;5012001;28;20526;-41
2021/03/11 02:53:09;;;;;;;14.10;10.10;;;9.00;70.20;;;;;;5022529;28;20515;-41
2021/03/11 02:55:41;;;;;;;14.50;9.00;;;9.10;70.10;;;;;;5024720;28;20448;-41
2021/03/11 02:58:14;;;;;;;14.97;9.83;;;9.10;70.00;;;;;;5028119;28;20820;-41
2021/03/11 03:00:41;;;;;;;13.13;8.87;;;9.10;70.50;;;;;;5027405;28;20444;-41
2021/03/11 03:03:10;;;;;;;13.60;8.73;;;9.10;70.20;;;;;;5011097;28;21166;-41
2021/03/11 03:05:38;;;;;;;14.13;10.10;;;9.20;69.40;;;;;;5026033;28;20503;-41
2021/03/11 03:08:06;;;;;;;14.80;9.97;;;9.20;69.70;;;;;;5008686;28;20443;-41
2021/03/11 03:10:34;;;;;;;13.07;8.90;;;9.20;69.30;;;;;;5001278;28;20467;-41
2021/03/11 03:13:04;;;;;;;16.23;9.13;;;9.30;69.10;;;;;;5027368;28;20435;-41
2021/03/11 03:15:31;;;;;;;13.80;8.40;;;9.30;69.20;;;;;;5009192;28;20505;-41
2021/03/11 03:17:59;;;;;;;14.13;8.77;;;9.30;69.10;;;;;;5012181;28;20536;-41
2021/03/11 03:20:27;;;;;;;12.57;8.33;;;9.40;69.00;;;;;;5026408;28;20448;-41
2021/03/11 03:22:54;;;;;;;13.40;8.97;;;9.40;68.70;;;;;;5025890;28;20550;-41
2021/03/11 03:25:48;;;;;;;14.23;8.80;;;9.40;69.00;;;;;;5028545;28;20970;-41
2021/03/11 03:28:15;;;;;;;15.43;9.10;;;9.40;69.00;;;;;;5024854;28;20533;-41
2021/03/11 03:30:49;;;;;;;11.67;9.13;;;9.40;69.00;;;;;;5029253;28;20551;-41
2021/03/11 03:33:16;;;;;;;14.57;8.73;;;9.40;69.00;;;;;;5028751;28;20959;-41
2021/03/11 03:35:43;;;;;;;13.47;8.47;;;9.40;69.30;;;;;;5023752;28;20812;-41
2021/03/11 03:38:10;;;;;;;22.90;10.57;;;9.40;69.30;;;;;;5026155;28;20535;-41
2021/03/11 03:40:37;;;;;;;10.63;8.03;;;9.40;69.20;;;;;;5030348;28;20454;-41
2021/03/11 03:43:24;;;;;;;14.53;8.50;;;9.40;69.10;;;;;;5028434;28;20476;-41
2021/03/11 03:45:55;;;;;;;11.40;7.97;;;9.40;69.30;;;;;;5021154;28;20868;-41
2021/03/11 03:48:37;;;;;;;15.37;8.60;;;9.40;69.50;;;;;;5027036;28;20487;-41
2021/03/11 03:51:05;;;;;;;11.40;8.60;;;9.40;69.80;;;;;;5028383;28;20497;-41
2021/03/11 03:53:39;;;;;;;11.90;7.53;;;9.40;69.80;;;;;;5008231;28;20486;-41
2021/03/11 03:56:28;;;;;;;12.20;8.33;;;9.40;70.40;;;;;;5028178;28;20522;-41
2021/03/11 03:58:59;;;;;;;11.27;7.20;;;9.40;70.50;;;;;;5025339;28;20463;-41
2021/03/11 04:01:29;;;;;;;12.03;9.00;;;9.40;71.00;;;;;;5025841;28;20458;-40
2021/03/11 04:03:59;;;;;;;13.37;7.47;;;9.40;71.10;;;;;;5026911;28;20447;-41
2021/03/11 04:06:26;;;;;;;16.00;8.97;;;9.40;71.40;;;;;;5023389;28;20502;-41
2021/03/11 04:08:54;;;;;;;14.03;8.93;;;9.40;71.20;;;;;;5008479;28;20617;-41
2021/03/11 04:11:20;;;;;;;12.03;7.87;;;9.40;71.00;;;;;;5007120;28;20455;-41
2021/03/11 04:13:48;;;;;;;12.33;8.57;;;9.30;71.60;;;;;;5010829;28;20479;-41
2021/03/11 04:16:22;;;;;;;14.37;8.30;;;9.30;71.80;;;;;;5026999;28;20452;-41
2021/03/11 04:18:52;;;;;;;11.80;7.20;;;9.40;71.90;;;;;;5024713;28;20463;-41
2021/03/11 04:21:19;;;;;;;12.47;8.20;;;9.40;71.90;;;;;;5008761;28;20539;-41
2021/03/11 04:23:49;;;;;;;11.80;7.30;;;9.40;71.90;;;;;;5008595;28;20992;-41
2021/03/11 04:26:26;;;;;;;12.03;7.23;;;9.40;71.80;;;;;;5025503;28;20505;-41
2021/03/11 04:28:53;;;;;;;15.63;8.93;;;9.30;71.70;;;;;;5023836;28;20489;-41
2021/03/11 04:31:20;;;;;;;15.57;8.63;;;9.40;71.90;;;;;;5009315;28;20516;-41
2021/03/11 04:33:46;;;;;;;11.67;8.13;;;9.30;71.90;;;;;;5025883;28;20546;-41
2021/03/11 04:36:13;;;;;;;11.23;7.60;;;9.40;71.90;;;;;;5007970;28;20471;-41
2021/03/11 04:38:43;;;;;;;15.57;9.43;;;9.40;72.10;;;;;;5024011;28;20490;-41
2021/03/11 04:41:10;;;;;;;12.17;8.70;;;9.40;71.80;;;;;;5027859;28;20466;-42
2021/03/11 04:43:38;;;;;;;12.67;8.13;;;9.40;72.00;;;;;;5007416;28;20491;-41
2021/03/11 04:46:05;;;;;;;12.00;8.17;;;9.40;72.10;;;;;;5022421;28;20459;-41
2021/03/11 04:48:33;;;;;;;13.77;8.17;;;9.40;72.20;;;;;;4991589;28;20582;-41
2021/03/11 04:51:05;;;;;;;13.43;9.20;;;9.40;72.20;;;;;;5026002;28;20462;-41
2021/03/11 04:53:32;;;;;;;13.70;8.10;;;9.40;72.20;;;;;;5040569;28;21051;-41
2021/03/11 04:56:00;;;;;;;15.50;9.50;;;9.40;72.10;;;;;;5005146;28;20482;-41
2021/03/11 04:58:28;;;;;;;10.30;7.27;;;9.40;72.50;;;;;;5008094;28;20546;-41
2021/03/11 05:01:01;;;;;;;13.17;8.70;;;9.40;72.40;;;;;;5025363;28;20473;-41
2021/03/11 05:03:27;;;;;;;13.53;9.93;;;9.40;72.50;;;;;;5009403;28;20448;-41
2021/03/11 05:05:54;;;;;;;12.73;8.20;;;9.40;72.80;;;;;;5007532;28;20798;-41
2021/03/11 05:08:25;;;;;;;12.77;8.40;;;9.40;72.70;;;;;;5025267;28;20471;-41
2021/03/11 05:10:53;;;;;;;11.57;7.47;;;9.40;72.60;;;;;;5021994;28;20471;-41
2021/03/11 05:13:20;;;;;;;13.10;8.47;;;9.40;72.90;;;;;;5022859;28;20467;-41
2021/03/11 05:15:46;;;;;;;12.50;8.10;;;9.40;72.80;;;;;;5026826;28;20451;-41
2021/03/11 05:18:12;;;;;;;9.70;7.10;;;9.40;73.10;;;;;;5023022;28;20498;-41
2021/03/11 05:20:39;;;;;;;12.50;7.53;;;9.40;73.40;;;;;;4993683;28;20451;-41
2021/03/11 05:23:06;;;;;;;12.17;6.47;;;9.40;73.50;;;;;;5003524;28;20464;-41
2021/03/11 05:25:32;;;;;;;11.43;7.30;;;9.40;74.00;;;;;;5023875;28;20905;-41
2021/03/11 05:28:01;;;;;;;8.23;6.80;;;9.40;74.40;;;;;;4991967;28;20858;-41
2021/03/11 05:30:27;;;;;;;11.67;7.33;;;9.40;74.80;;;;;;5008086;28;20488;-41
2021/03/11 05:32:57;;;;;;;10.60;6.80;;;9.40;74.90;;;;;;5010702;28;20483;-41
2021/03/11 05:35:24;;;;;;;10.47;6.43;;;9.40;74.90;;;;;;5009830;28;20525;-41
2021/03/11 05:37:57;;;;;;;8.90;6.47;;;9.40;75.20;;;;;;5027953;28;20542;-41
2021/03/11 05:40:24;;;;;;;10.70;6.37;;;9.40;75.50;;;;;;4987917;28;20498;-41
2021/03/11 05:42:53;;;;;;;12.30;6.30;;;9.40;75.90;;;;;;5010275;28;20491;-41
2021/03/11 05:45:20;;;;;;;7.63;5.30;;;9.40;76.20;;;;;;5008794;28;20537;-41
2021/03/11 05:47:46;;;;;;;12.13;7.30;;;9.30;76.50;;;;;;5005833;28;20487;-41
2021/03/11 05:50:13;;;;;;;9.27;6.30;;;9.30;76.70;;;;;;5008500;28;20527;-41
2021/03/11 05:52:40;;;;;;;9.53;7.17;;;9.30;77.00;;;;;;5025037;28;20799;-41
2021/03/11 05:55:08;;;;;;;9.57;6.80;;;9.30;77.50;;;;;;5025174;28;20554;-41
2021/03/11 05:57:45;;;;;;;10.00;7.10;;;9.30;77.90;;;;;;5011556;28;20828;-41
2021/03/11 06:00:17;;;;;;;11.80;7.23;;;9.20;78.10;;;;;;5007247;28;20506;-41
2021/03/11 06:02:45;;;;;;;11.20;6.60;;;9.20;78.30;;;;;;5010316;28;20522;-41
2021/03/11 06:05:15;;;;;;;13.33;7.80;;;9.20;78.50;;;;;;5028724;28;20521;-41
2021/03/11 06:07:46;;;;;;;12.40;8.13;;;9.20;78.60;;;;;;5024025;28;20462;-41
2021/03/11 06:10:18;;;;;;;10.20;7.60;;;9.20;78.50;;;;;;5025318;28;20479;-41
2021/03/11 06:12:45;;;;;;;13.57;8.30;;;9.20;78.50;;;;;;5009046;28;20500;-41
2021/03/11 06:15:14;;;;;;;12.07;7.50;;;9.20;78.40;;;;;;5007561;28;20551;-41
2021/03/11 06:17:42;;;;;;;11.77;7.70;;;9.20;78.50;;;;;;5018831;28;20979;-41
2021/03/11 06:20:09;;;;;;;8.87;7.30;;;9.20;78.50;;;;;;5028318;28;20545;-41
2021/03/11 06:22:36;;;;;;;15.30;7.73;;;9.20;78.60;;;;;;5025337;28;20550;-40
2021/03/11 06:25:07;;;;;;;9.80;7.33;;;9.20;78.60;;;;;;5015658;28;20463;-41
2021/03/11 06:27:33;;;;;;;11.63;7.40;;;9.20;78.60;;;;;;5029756;28;20452;-41
2021/03/11 06:30:00;;;;;;;9.73;7.70;;;9.30;78.80;;;;;;5026788;28;20520;-41
2021/03/11 06:32:27;;;;;;;10.60;7.13;;;9.20;78.80;;;;;;5028077;28;20813;-41
2021/03/11 06:34:54;;;;;;;10.80;7.27;;;9.20;78.90;;;;;;5027026;28;20550;-41
2021/03/11 06:37:36;;;;;;;10.00;6.93;;;9.20;78.90;;;;;;5010393;28;20474;-41
2021/03/11 06:40:14;;;;;;;10.30;6.83;;;9.30;79.00;;;;;;5011550;28;20550;-41
2021/03/11 06:42:41;;;;;;;9.20;7.17;;;9.30;79.10;;;;;;5026081;28;20467;-41
2021/03/11 06:45:27;;;;;;;9.30;7.30;;;9.30;79.00;;;;;;5027057;28;20482;-41
2021/03/11 06:48:20;;;;;;;9.17;7.20;;;9.30;79.10;;;;;;5025754;28;20467;-41
2021/03/11 06:50:46;;;;;;;13.00;6.20;;;9.30;79.20;;;;;;5010755;28;20648;-41
2021/03/11 06:53:16;;;;;;;9.70;6.70;;;9.30;79.40;;;;;;5023264;28;21095;-41
2021/03/11 06:55:42;;;;;;;8.20;6.13;;;9.30;79.30;;;;;;5025811;28;20530;-41
2021/03/11 06:58:25;;;;;;;7.13;6.03;;;9.30;79.40;;;;;;5026338;28;20463;-41
2021/03/11 07:01:06;;;;;;;9.63;6.33;;;9.30;79.60;;;;;;5012144;28;20818;-41
2021/03/11 07:03:37;;;;;;;8.43;6.57;;;9.30;79.80;;;;;;5041533;28;20474;-41
2021/03/11 07:06:04;;;;;;;10.57;6.63;;;9.30;79.80;;;;;;5025015;28;20513;-41
2021/03/11 07:08:30;;;;;;;9.40;6.20;;;9.30;79.80;;;;;;5009105;28;20550;-41
2021/03/11 07:11:05;;;;;;;9.13;6.17;;;9.40;79.90;;;;;;5004391;28;20550;-41
2021/03/11 07:13:39;;;;;;;7.93;6.03;;;9.40;79.70;;;;;;5012215;28;20538;-41
2021/03/11 07:16:21;;;;;;;8.10;5.87;;;9.40;79.80;;;;;;5039730;28;20490;-41
2021/03/11 07:18:49;;;;;;;8.57;5.67;;;9.40;79.90;;;;;;5026053;28;20463;-41
2021/03/11 07:21:40;;;;;;;8.30;5.40;;;9.40;80.00;;;;;;5008753;28;20546;-41
2021/03/11 07:24:06;;;;;;;8.67;5.53;;;9.40;80.20;;;;;;5021514;28;20527;-41
2021/03/11 07:26:34;;;;;;;8.30;6.10;;;9.40;80.30;;;;;;5009151;28;20491;-41
2021/03/11 07:29:20;;;;;;;6.30;5.20;;;9.40;80.50;;;;;;5030005;28;20574;-41
2021/03/11 07:31:54;;;;;;;7.70;5.20;;;9.50;80.60;;;;;;5024904;28;20459;-41
2021/03/11 07:34:28;;;;;;;6.27;4.80;;;9.50;80.70;;;;;;5008313;28;20548;-41
2021/03/11 07:36:59;;;;;;;7.60;5.27;;;9.50;80.70;;;;;;5007771;28;20475;-41
2021/03/11 07:39:40;;;;;;;7.70;4.77;;;9.50;81.00;;;;;;5009911;28;20496;-41
2021/03/11 07:42:08;;;;;;;6.33;4.73;;;9.50;81.10;;;;;;5023082;28;20547;-41
2021/03/11 07:44:35;;;;;;;10.30;6.07;;;9.50;81.10;;;;;;5002967;28;20532;-41
2021/03/11 07:47:05;;;;;;;6.70;5.77;;;9.50;81.20;;;;;;4998721;28;20547;-41
2021/03/11 07:49:35;;;;;;;5.83;5.13;;;9.50;81.20;;;;;;5022866;28;20487;-41
2021/03/11 07:52:06;;;;;;;5.90;5.30;;;9.60;81.30;;;;;;5024450;28;20451;-41
2021/03/11 07:54:33;;;;;;;7.97;4.97;;;9.60;81.40;;;;;;5006385;28;20467;-41
2021/03/11 07:57:01;;;;;;;7.70;5.67;;;9.60;81.30;;;;;;5023658;28;20536;-41
2021/03/11 07:59:27;;;;;;;9.83;6.33;;;9.70;81.50;;;;;;5005325;28;20510;-41
2021/03/11 08:01:58;;;;;;;6.87;5.80;;;9.70;81.90;;;;;;5026369;28;20547;-41
2021/03/11 08:04:32;;;;;;;6.93;5.50;;;9.70;82.20;;;;;;5024395;28;20457;-41
2021/03/11 08:07:23;;;;;;;7.87;4.80;;;9.70;82.20;;;;;;5023900;28;20467;-41
2021/03/11 08:09:51;;;;;;;4.67;4.17;;;9.70;82.10;;;;;;5021546;28;20526;-41
2021/03/11 08:12:29;;;;;;;8.10;4.40;;;9.80;81.70;;;;;;5026517;28;20519;-41
2021/03/11 08:14:57;;;;;;;8.37;4.87;;;9.80;81.40;;;;;;5025855;28;20530;-41
2021/03/11 08:17:41;;;;;;;6.30;4.60;;;9.80;81.40;;;;;;5007983;28;20543;-41
2021/03/11 08:20:31;;;;;;;6.53;5.03;;;9.80;81.60;;;;;;5023023;28;21015;-41
2021/03/11 08:22:57;;;;;;;5.10;4.60;;;9.90;81.50;;;;;;5043456;28;20546;-41
2021/03/11 08:25:33;;;;;;;6.50;4.70;;;9.90;81.40;;;;;;5026495;28;20873;-41
2021/03/11 08:28:08;;;;;;;6.60;5.70;;;10.00;81.50;;;;;;5041214;28;20465;-41
2021/03/11 08:30:37;;;;;;;4.60;3.67;;;10.00;81.30;;;;;;5038536;28;20573;-41
2021/03/11 08:33:34;;;;;;;5.87;4.10;;;10.00;81.40;;;;;;5019927;28;20467;-41
2021/03/11 08:36:02;;;;;;;6.27;4.63;;;10.00;81.40;;;;;;5021378;28;20459;-41
2021/03/11 08:38:30;;;;;;;6.93;4.27;;;10.10;81.30;;;;;;5022799;28;21023;-41
2021/03/11 08:41:06;;;;;;;5.80;4.40;;;10.10;81.60;;;;;;5024688;28;20509;-41
2021/03/11 08:43:38;;;;;;;5.37;4.10;;;10.20;81.60;;;;;;5006780;28;20886;-41
2021/03/11 08:46:12;;;;;;;5.40;4.43;;;10.20;81.50;;;;;;5023894;28;20459;-41
2021/03/11 08:48:51;;;;;;;6.40;4.47;;;10.20;81.60;;;;;;5007181;28;20470;-41
2021/03/11 08:51:18;;;;;;;6.90;4.40;;;10.30;81.30;;;;;;5021492;28;20460;-40
2021/03/11 08:53:59;;;;;;;6.30;4.60;;;10.30;81.20;;;;;;5022432;28;20893;-41
2021/03/11 08:56:25;;;;;;;7.27;4.40;;;10.30;81.40;;;;;;5007011;28;20898;-41
2021/03/11 08:59:21;;;;;;;4.80;3.80;;;10.30;81.50;;;;;;5022327;28;20491;-40
2021/03/11 09:01:52;;;;;;;5.83;3.67;;;10.40;81.30;;;;;;5013146;28;20514;-40
2021/03/11 09:04:40;;;;;;;6.80;4.07;;;10.40;81.20;;;;;;5010992;28;20960;-40
2021/03/11 09:07:31;;;;;;;7.53;4.40;;;10.40;81.20;;;;;;5021194;28;20468;-41
2021/03/11 09:09:58;;;;;;;5.00;3.87;;;10.40;81.20;;;;;;5031519;28;20487;-41
2021/03/11 09:12:37;;;;;;;5.23;3.70;;;10.50;81.30;;;;;;5008896;28;20815;-41
2021/03/11 09:15:09;;;;;;;4.77;3.50;;;10.50;81.40;;;;;;5024180;28;20447;-41
2021/03/11 09:17:38;;;;;;;5.50;3.53;;;10.60;81.50;;;;;;5021043;28;20451;-41
2021/03/11 09:20:11;;;;;;;3.80;3.30;;;10.60;81.50;;;;;;5008811;28;20455;-41
2021/03/11 09:22:51;;;;;;;3.80;3.47;;;10.60;81.70;;;;;;5021959;28;20542;-41
2021/03/11 09:25:23;;;;;;;5.97;3.50;;;10.60;81.80;;;;;;5005456;28;20522;-41
2021/03/11 09:28:06;;;;;;;7.73;3.73;;;10.70;81.80;;;;;;5007642;28;20459;-41
2021/03/11 09:30:39;;;;;;;4.83;3.70;;;10.70;81.50;;;;;;5009418;28;20491;-41
2021/03/11 09:33:17;;;;;;;5.20;3.87;;;10.80;81.30;;;;;;5026519;28;20869;-40
2021/03/11 09:35:44;;;;;;;5.30;3.43;;;10.80;81.20;;;;;;5023401;28;20447;-41
2021/03/11 09:38:12;;;;;;;8.87;4.17;;;10.80;81.30;;;;;;5009145;28;20443;-40
2021/03/11 09:41:01;;;;;;;5.10;3.63;;;10.80;81.30;;;;;;5038756;28;20455;-41
2021/03/11 09:43:33;;;;;;;4.83;3.60;;;10.90;81.10;;;;;;5024725;28;20464;-41
2021/03/11 09:46:17;;;;;;;5.60;4.23;;;10.90;81.10;;;;;;5007356;28;20508;-40
2021/03/11 09:48:47;;;;;;;5.77;3.87;;;10.90;81.10;;;;;;5026588;28;20458;-41
2021/03/11 09:51:21;;;;;;;4.63;3.40;;;10.90;81.00;;;;;;5026600;28;20479;-40
2021/03/11 09:53:59;;;;;;;4.67;3.50;;;10.90;81.00;;;;;;5037579;28;20517;-41
2021/03/11 09:56:40;;;;;;;4.23;3.20;;;10.90;80.90;;;;;;5012802;28;20463;-41
2021/03/11 09:59:16;;;;;;;5.07;3.23;;;11.00;80.80;;;;;;5010419;28;20455;-41
2021/03/11 10:01:47;;;;;;;7.83;4.27;;;11.00;80.80;;;;;;5023897;28;20482;-41
2021/03/11 10:04:23;;;;;;;5.23;3.40;;;11.00;80.80;;;;;;5013294;28;20900;-41
2021/03/11 10:06:55;;;;;;;5.57;3.80;;;11.00;80.70;;;;;;5029080;28;20479;-41
2021/03/11 10:09:23;;;;;;;7.17;3.30;;;11.10;80.80;;;;;;5005732;28;21083;-41
2021/03/11 10:11:54;;;;;;;4.43;3.17;;;11.10;80.60;;;;;;5024085;28;20982;-42
2021/03/11 10:14:28;;;;;;;6.47;3.07;;;11.10;80.60;;;;;;5010150;28;20454;-41
2021/03/11 10:16:56;;;;;;;4.30;3.40;;;11.20;80.60;;;;;;5007805;28;20994;-41
2021/03/11 10:19:30;;;;;;;5.10;3.53;;;11.20;80.50;;;;;;5009342;28;20474;-41
2021/03/11 10:22:04;;;;;;;2.57;2.37;;;11.30;80.50;;;;;;5025358;28;20544;-41
2021/03/11 10:24:45;;;;;;;2.90;2.50;;;11.30;80.60;;;;;;5026498;28;21015;-43
2021/03/11 10:27:24;;;;;;;4.27;2.57;;;11.30;80.60;;;;;;5024792;28;20460;-43
2021/03/11 10:30:08;;;;;;;3.57;2.50;;;11.40;80.50;;;;;;5026361;28;20530;-43
2021/03/11 10:32:38;;;;;;;5.73;3.20;;;11.40;80.60;;;;;;5024456;28;20455;-43
2021/03/11 10:35:07;;;;;;;4.10;2.93;;;11.40;80.70;;;;;;5024743;28;20468;-43
2021/03/11 10:37:40;;;;;;;5.30;2.83;;;11.40;80.80;;;;;;5024202;28;20537;-41
2021/03/11 10:40:18;;;;;;;3.70;3.33;;;11.40;81.30;;;;;;5027285;28;20491;-42
2021/03/11 10:42:55;;;;;;;3.10;2.80;;;11.40;81.40;;;;;;5023250;28;20836;-41
2021/03/11 10:45:36;;;;;;;3.97;2.53;;;11.50;81.50;;;;;;4989752;28;20934;-43
2021/03/11 10:48:06;;;;;;;3.20;2.70;;;11.50;81.50;;;;;;5024079;28;20902;-42
2021/03/11 10:51:02;;;;;;;2.93;2.30;;;11.70;81.00;;;;;;5021973;28;20774;-41
2021/03/11 10:53:38;;;;;;;3.63;2.37;;;11.70;80.50;;;;;;4990512;28;20998;-41
2021/03/11 10:56:08;;;;;;;3.30;2.90;;;11.80;79.90;;;;;;5025276;28;20543;-41
2021/03/11 10:58:39;;;;;;;2.70;1.90;;;11.80;79.80;;;;;;5028514;28;20467;-41
2021/03/11 11:01:21;;;;;;;3.27;2.43;;;11.90;79.70;;;;;;4994475;28;20495;-41
2021/03/11 11:03:48;;;;;;;3.20;2.83;;;12.00;79.80;;;;;;5042251;28;20523;-41
2021/03/11 11:06:15;;;;;;;2.60;2.40;;;12.10;79.40;;;;;;5024886;28;20447;-42
2021/03/11 11:08:44;;;;;;;4.53;2.73;;;12.20;79.20;;;;;;5026409;28;20475;-41
2021/03/11 11:11:13;;;;;;;3.30;2.70;;;12.30;79.10;;;;;;5027382;28;20831;-42
2021/03/11 11:13:39;;;;;;;6.20;2.40;;;12.40;78.40;;;;;;5025530;28;20561;-41
2021/03/11 11:16:06;;;;;;;3.30;2.67;;;12.50;78.30;;;;;;5004901;28;20568;-41
2021/03/11 11:18:32;;;;;;;2.23;2.00;;;12.50;77.90;;;;;;5026936;28;20547;-42
2021/03/11 11:21:03;;;;;;;1.70;1.60;;;12.60;78.80;;;;;;5023689;28;20526;-41
2021/03/11 11:23:31;;;;;;;2.13;1.50;;;12.60;78.60;;;;;;5023694;28;20499;-42
2021/03/11 11:25:58;;;;;;;3.03;2.10;;;12.60;79.80;;;;;;5024082;28;20470;-42
2021/03/11 11:28:24;;;;;;;2.17;1.70;;;12.60;80.90;;;;;;5007013;28;21003;-42
2021/03/11 11:30:52;;;;;;;1.80;1.70;;;12.60;81.10;;;;;;5008092;28;20484;-42
2021/03/11 11:33:21;;;;;;;2.27;1.57;;;12.50;81.70;;;;;;5008144;28;20459;-42
2021/03/11 11:35:50;;;;;;;2.93;2.17;;;12.50;82.10;;;;;;5004488;28;21022;-42
2021/03/11 11:38:16;;;;;;;2.80;1.87;;;12.40;82.60;;;;;;5024994;28;20916;-41
2021/03/11 11:40:48;;;;;;;4.23;2.33;;;12.40;82.60;;;;;;5026643;28;20460;-41
2021/03/11 11:43:14;;;;;;;1.97;1.77;;;12.30;82.90;;;;;;5019563;28;20546;-41
2021/03/11 11:45:41;;;;;;;3.50;2.60;;;12.30;83.10;;;;;;4998924;28;20475;-42
2021/03/11 11:48:08;;;;;;;3.13;2.40;;;12.30;83.30;;;;;;5005202;28;20463;-42
2021/03/11 11:50:52;;;;;;;2.50;2.30;;;12.30;84.30;;;;;;5025111;28;20572;-42
2021/03/11 11:53:19;;;;;;;3.70;2.40;;;12.40;84.90;;;;;;5026193;28;20459;-42
2021/03/11 11:55:45;;;;;;;3.47;2.57;;;12.50;84.20;;;;;;5011621;28;20490;-42
2021/03/11 11:58:17;;;;;;;2.97;2.43;;;12.60;84.50;;;;;;5025833;28;20534;-41
2021/03/11 12:00:47;;;;;;;3.13;2.67;;;12.70;84.30;;;;;;5025928;28;20546;-43
2021/03/11 12:03:18;;;;;;;3.00;2.47;;;12.80;84.00;;;;;;5022443;28;20554;-40
2021/03/11 12:05:45;;;;;;;4.23;2.10;;;12.90;82.40;;;;;;5007846;28;20530;-41
2021/03/11 12:08:11;;;;;;;2.40;2.03;;;12.90;82.70;;;;;;4991276;28;20461;-42
2021/03/11 12:10:38;;;;;;;2.43;2.03;;;13.00;82.40;;;;;;5003977;28;20514;-42
2021/03/11 12:13:07;;;;;;;3.70;2.30;;;13.00;81.90;;;;;;5008675;28;20833;-42
2021/03/11 12:15:34;;;;;;;2.27;2.07;;;13.10;82.20;;;;;;5025880;28;20530;-42
2021/03/11 12:18:02;;;;;;;2.30;1.60;;;13.10;81.00;;;;;;5018414;28;20470;-42
2021/03/11 12:20:33;;;;;;;2.60;1.97;;;13.10;80.00;;;;;;4988408;28;20487;-42
2021/03/11 12:23:01;;;;;;;2.17;1.97;;;13.20;80.40;;;;;;5006388;28;20455;-41
2021/03/11 12:25:31;;;;;;;2.57;2.17;;;13.20;79.60;;;;;;5022504;28;21180;-42
2021/03/11 12:27:57;;;;;;;2.17;1.97;;;13.20;80.70;;;;;;5018926;28;21334;-41
2021/03/11 12:30:24;;;;;;;2.37;2.17;;;13.20;80.60;;;;;;5009249;28;20562;-41
2021/03/11 12:32:52;;;;;;;2.20;2.00;;;13.30;80.70;;;;;;5023594;28;20444;-42
2021/03/11 12:35:18;;;;;;;1.83;1.50;;;13.30;80.30;;;;;;5004757;28;20490;-41
2021/03/11 12:37:45;;;;;;;2.40;1.53;;;13.50;80.20;;;;;;5022858;28;20559;-42
2021/03/11 12:40:12;;;;;;;1.43;1.10;;;13.60;79.20;;;;;;5026174;28;20498;-42
2021/03/11 12:42:41;;;;;;;1.40;1.30;;;13.70;74.00;;;;;;5024180;28;20463;-41
2021/03/11 12:45:08;;;;;;;1.87;0.70;;;13.90;74.10;;;;;;5027163;28;21055;-42
2021/03/11 12:47:35;;;;;;;0.87;0.57;;;14.00;70.40;;;;;;5006870;28;20582;-41
2021/03/11 12:50:02;;;;;;;7.63;1.17;;;14.20;68.40;;;;;;5006954;28;21003;-42
2021/03/11 12:52:30;;;;;;;0.80;0.63;;;14.30;65.60;;;;;;5006174;28;20519;-42
2021/03/11 12:54:56;;;;;;;0.83;0.70;;;14.40;65.50;;;;;;5008572;28;20538;-41
2021/03/11 12:57:23;;;;;;;1.03;0.53;;;14.50;65.90;;;;;;5009408;28;21103;-42
2021/03/11 12:59:50;;;;;;;1.00;0.40;;;14.60;65.50;;;;;;5008542;28;20448;-41
2021/03/11 13:02:16;;;;;;;1.80;0.50;;;14.80;65.40;;;;;;5021095;28;20521;-42
2021/03/11 13:04:43;;;;;;;1.40;0.70;;;14.90;65.60;;;;;;5006761;28;20452;-41
2021/03/11 13:07:10;;;;;;;1.80;0.80;;;14.90;66.10;;;;;;5005440;28;20504;-41